sensor_id;sensor_type;location;lat;lon;timestamp;P1;durP1;ratioP1;P2;durP2;ratioP2
8596;SDS011;4336;49.310;8.646;2023-07-08T00:00:18;16.77;;;15.17;;
8596;SDS011;4336;49.310;8.646;2023-07-08T00:02:48;16.57;;;14.70;;
8596;SDS011;4336;49.310;8.646;2023-07-08T00:05:14;17.40;;;15.10;;
8596;SDS011;4336;49.310;8.646;2023-07-08T00:07:42;17.93;;;15.17;;
8596;SDS011;4336;49.310;8.646;2023-07-08T00:10:12;16.98;;;14.48;;
8596;SDS011;4336;49.310;8.646;2023-07-08T00:12:43;16.33;;;14.73;;
8596;SDS011;4336;49.310;8.646;2023-07-08T00:15:10;15.20;;;13.80;;
8596;SDS011;4336;49.310;8.646;2023-07-08T00:17:36;19.13;;;14.33;;
8596;SDS011;4336;49.310;8.646;2023-07-08T00:20:09;16.20;;;14.50;;
8596;SDS011;4336;49.310;8.646;2023-07-08T00:22:48;15.70;;;14.20;;
8596;SDS011;4336;49.310;8.646;2023-07-08T00:25:17;16.20;;;14.57;;
8596;SDS011;4336;49.310;8.646;2023-07-08T00:27:46;17.03;;;14.70;;
8596;SDS011;4336;49.310;8.646;2023-07-08T00:30:29;16.77;;;15.17;;
8596;SDS011;4336;49.310;8.646;2023-07-08T00:32:57;17.00;;;15.30;;
8596;SDS011;4336;49.310;8.646;2023-07-08T00:35:29;16.90;;;15.30;;
8596;SDS011;4336;49.310;8.646;2023-07-08T00:38:23;17.07;;;15.33;;
8596;SDS011;4336;49.310;8.646;2023-07-08T00:41:09;16.40;;;14.70;;
8596;SDS011;4336;49.310;8.646;2023-07-08T00:51:33;21.87;;;15.30;;
8596;SDS011;4336;49.310;8.646;2023-07-08T00:54:15;17.00;;;14.93;;
8596;SDS011;4336;49.310;8.646;2023-07-08T00:56:46;17.27;;;14.47;;
8596;SDS011;4336;49.310;8.646;2023-07-08T00:59:18;17.73;;;15.13;;
8596;SDS011;4336;49.310;8.646;2023-07-08T01:01:54;18.07;;;14.40;;
8596;SDS011;4336;49.310;8.646;2023-07-08T01:04:25;22.33;;;14.37;;
8596;SDS011;4336;49.310;8.646;2023-07-08T01:06:55;15.43;;;13.83;;
8596;SDS011;4336;49.310;8.646;2023-07-08T01:09:32;16.47;;;14.87;;
8596;SDS011;4336;49.310;8.646;2023-07-08T01:12:02;16.03;;;14.33;;
8596;SDS011;4336;49.310;8.646;2023-07-08T01:14:30;17.27;;;14.40;;
8596;SDS011;4336;49.310;8.646;2023-07-08T01:16:59;16.20;;;14.50;;
8596;SDS011;4336;49.310;8.646;2023-07-08T01:19:25;16.33;;;14.63;;
8596;SDS011;4336;49.310;8.646;2023-07-08T01:22:02;19.63;;;14.17;;
8596;SDS011;4336;49.310;8.646;2023-07-08T01:24:29;17.23;;;15.53;;
8596;SDS011;4336;49.310;8.646;2023-07-08T01:26:57;21.23;;;15.30;;
8596;SDS011;4336;49.310;8.646;2023-07-08T01:29:23;16.80;;;15.17;;
8596;SDS011;4336;49.310;8.646;2023-07-08T01:31:49;16.20;;;14.60;;
8596;SDS011;4336;49.310;8.646;2023-07-08T01:34:15;16.97;;;14.23;;
8596;SDS011;4336;49.310;8.646;2023-07-08T01:36:43;16.50;;;14.90;;
8596;SDS011;4336;49.310;8.646;2023-07-08T01:39:12;17.83;;;14.97;;
8596;SDS011;4336;49.310;8.646;2023-07-08T01:41:40;16.47;;;14.87;;
8596;SDS011;4336;49.310;8.646;2023-07-08T01:44:18;16.53;;;14.87;;
8596;SDS011;4336;49.310;8.646;2023-07-08T01:46:53;17.83;;;14.33;;
8596;SDS011;4336;49.310;8.646;2023-07-08T01:49:21;16.10;;;14.47;;
8596;SDS011;4336;49.310;8.646;2023-07-08T01:51:48;15.80;;;14.13;;
8596;SDS011;4336;49.310;8.646;2023-07-08T01:54:15;17.57;;;15.20;;
8596;SDS011;4336;49.310;8.646;2023-07-08T01:56:40;17.97;;;15.07;;
8596;SDS011;4336;49.310;8.646;2023-07-08T01:59:06;16.63;;;15.03;;
8596;SDS011;4336;49.310;8.646;2023-07-08T02:01:32;15.13;;;12.77;;
8596;SDS011;4336;49.310;8.646;2023-07-08T02:03:58;18.40;;;14.70;;
8596;SDS011;4336;49.310;8.646;2023-07-08T02:06:23;16.80;;;15.20;;
8596;SDS011;4336;49.310;8.646;2023-07-08T02:08:49;16.37;;;14.77;;
8596;SDS011;4336;49.310;8.646;2023-07-08T02:11:16;16.30;;;14.60;;
8596;SDS011;4336;49.310;8.646;2023-07-08T02:13:42;16.10;;;14.50;;
8596;SDS011;4336;49.310;8.646;2023-07-08T02:16:08;16.40;;;14.70;;
8596;SDS011;4336;49.310;8.646;2023-07-08T02:18:33;16.80;;;15.07;;
8596;SDS011;4336;49.310;8.646;2023-07-08T02:20:59;16.67;;;14.90;;
8596;SDS011;4336;49.310;8.646;2023-07-08T02:23:26;16.60;;;14.80;;
8596;SDS011;4336;49.310;8.646;2023-07-08T02:25:57;16.63;;;14.70;;
8596;SDS011;4336;49.310;8.646;2023-07-08T02:28:23;15.47;;;13.87;;
8596;SDS011;4336;49.310;8.646;2023-07-08T02:30:49;16.87;;;13.83;;
8596;SDS011;4336;49.310;8.646;2023-07-08T02:33:15;15.90;;;14.30;;
8596;SDS011;4336;49.310;8.646;2023-07-08T02:35:42;17.13;;;14.67;;
8596;SDS011;4336;49.310;8.646;2023-07-08T02:38:08;16.33;;;14.60;;
8596;SDS011;4336;49.310;8.646;2023-07-08T02:40:34;15.30;;;13.90;;
8596;SDS011;4336;49.310;8.646;2023-07-08T02:43:00;16.47;;;14.60;;
8596;SDS011;4336;49.310;8.646;2023-07-08T02:45:25;17.13;;;15.23;;
8596;SDS011;4336;49.310;8.646;2023-07-08T02:47:52;15.70;;;14.17;;
8596;SDS011;4336;49.310;8.646;2023-07-08T02:50:17;17.17;;;15.00;;
8596;SDS011;4336;49.310;8.646;2023-07-08T02:52:44;15.97;;;14.47;;
8596;SDS011;4336;49.310;8.646;2023-07-08T02:55:10;19.20;;;15.37;;
8596;SDS011;4336;49.310;8.646;2023-07-08T02:57:35;17.30;;;15.07;;
8596;SDS011;4336;49.310;8.646;2023-07-08T03:00:01;16.60;;;14.90;;
8596;SDS011;4336;49.310;8.646;2023-07-08T03:02:29;16.13;;;14.50;;
8596;SDS011;4336;49.310;8.646;2023-07-08T03:04:55;15.53;;;14.03;;
8596;SDS011;4336;49.310;8.646;2023-07-08T03:07:24;16.03;;;14.53;;
8596;SDS011;4336;49.310;8.646;2023-07-08T03:09:50;15.97;;;14.37;;
8596;SDS011;4336;49.310;8.646;2023-07-08T03:12:16;16.77;;;15.17;;
8596;SDS011;4336;49.310;8.646;2023-07-08T03:14:41;16.80;;;15.03;;
8596;SDS011;4336;49.310;8.646;2023-07-08T03:17:07;16.07;;;14.53;;
8596;SDS011;4336;49.310;8.646;2023-07-08T03:19:33;17.57;;;14.87;;
8596;SDS011;4336;49.310;8.646;2023-07-08T03:21:59;15.00;;;13.40;;
8596;SDS011;4336;49.310;8.646;2023-07-08T03:24:28;15.87;;;14.33;;
8596;SDS011;4336;49.310;8.646;2023-07-08T03:26:57;16.30;;;14.70;;
8596;SDS011;4336;49.310;8.646;2023-07-08T03:29:25;15.97;;;14.33;;
8596;SDS011;4336;49.310;8.646;2023-07-08T03:31:51;16.53;;;14.83;;
8596;SDS011;4336;49.310;8.646;2023-07-08T03:34:17;16.40;;;14.07;;
8596;SDS011;4336;49.310;8.646;2023-07-08T03:36:50;16.17;;;14.57;;
8596;SDS011;4336;49.310;8.646;2023-07-08T03:39:18;16.47;;;13.90;;
8596;SDS011;4336;49.310;8.646;2023-07-08T03:41:51;14.03;;;12.13;;
8596;SDS011;4336;49.310;8.646;2023-07-08T03:44:18;17.00;;;15.27;;
8596;SDS011;4336;49.310;8.646;2023-07-08T03:46:45;16.67;;;14.97;;
8596;SDS011;4336;49.310;8.646;2023-07-08T03:49:16;16.80;;;14.97;;
8596;SDS011;4336;49.310;8.646;2023-07-08T03:51:47;15.40;;;13.90;;
8596;SDS011;4336;49.310;8.646;2023-07-08T03:54:17;17.13;;;14.30;;
8596;SDS011;4336;49.310;8.646;2023-07-08T03:56:43;17.40;;;14.67;;
8596;SDS011;4336;49.310;8.646;2023-07-08T03:59:10;17.03;;;15.40;;
8596;SDS011;4336;49.310;8.646;2023-07-08T04:01:36;16.90;;;15.10;;
8596;SDS011;4336;49.310;8.646;2023-07-08T04:04:08;17.37;;;15.57;;
8596;SDS011;4336;49.310;8.646;2023-07-08T04:06:35;16.30;;;13.73;;
8596;SDS011;4336;49.310;8.646;2023-07-08T04:09:01;17.63;;;15.50;;
8596;SDS011;4336;49.310;8.646;2023-07-08T04:11:27;15.93;;;14.33;;
8596;SDS011;4336;49.310;8.646;2023-07-08T04:13:53;15.37;;;13.73;;
8596;SDS011;4336;49.310;8.646;2023-07-08T04:16:20;17.57;;;14.10;;
8596;SDS011;4336;49.310;8.646;2023-07-08T04:18:50;15.20;;;12.77;;
8596;SDS011;4336;49.310;8.646;2023-07-08T04:21:18;18.17;;;13.47;;
8596;SDS011;4336;49.310;8.646;2023-07-08T04:23:45;15.87;;;14.27;;
8596;SDS011;4336;49.310;8.646;2023-07-08T04:26:11;16.87;;;14.53;;
8596;SDS011;4336;49.310;8.646;2023-07-08T04:28:36;16.27;;;14.63;;
8596;SDS011;4336;49.310;8.646;2023-07-08T04:31:02;15.50;;;14.00;;
8596;SDS011;4336;49.310;8.646;2023-07-08T04:33:29;16.53;;;14.83;;
8596;SDS011;4336;49.310;8.646;2023-07-08T04:35:54;16.20;;;14.50;;
8596;SDS011;4336;49.310;8.646;2023-07-08T04:38:22;17.97;;;14.50;;
8596;SDS011;4336;49.310;8.646;2023-07-08T04:40:49;15.33;;;13.73;;
8596;SDS011;4336;49.310;8.646;2023-07-08T04:43:19;15.67;;;14.07;;
8596;SDS011;4336;49.310;8.646;2023-07-08T04:45:47;15.63;;;14.07;;
8596;SDS011;4336;49.310;8.646;2023-07-08T04:48:18;16.17;;;14.60;;
8596;SDS011;4336;49.310;8.646;2023-07-08T04:50:47;16.57;;;14.77;;
8596;SDS011;4336;49.310;8.646;2023-07-08T04:53:14;14.73;;;13.40;;
8596;SDS011;4336;49.310;8.646;2023-07-08T04:55:44;17.20;;;13.73;;
8596;SDS011;4336;49.310;8.646;2023-07-08T04:58:16;14.10;;;12.63;;
8596;SDS011;4336;49.310;8.646;2023-07-08T05:00:42;14.87;;;13.43;;
8596;SDS011;4336;49.310;8.646;2023-07-08T05:03:08;14.47;;;12.97;;
8596;SDS011;4336;49.310;8.646;2023-07-08T05:05:33;16.87;;;14.03;;
8596;SDS011;4336;49.310;8.646;2023-07-08T05:07:59;16.00;;;13.50;;
8596;SDS011;4336;49.310;8.646;2023-07-08T05:10:25;14.82;;;13.35;;
8596;SDS011;4336;49.310;8.646;2023-07-08T05:12:51;14.80;;;13.50;;
8596;SDS011;4336;49.310;8.646;2023-07-08T05:15:17;15.90;;;13.48;;
8596;SDS011;4336;49.310;8.646;2023-07-08T05:17:43;14.98;;;13.57;;
8596;SDS011;4336;49.310;8.646;2023-07-08T05:20:10;14.30;;;12.90;;
8596;SDS011;4336;49.310;8.646;2023-07-08T05:22:37;16.08;;;14.05;;
8596;SDS011;4336;49.310;8.646;2023-07-08T05:25:03;14.73;;;13.23;;
8596;SDS011;4336;49.310;8.646;2023-07-08T05:27:30;15.68;;;13.68;;
8596;SDS011;4336;49.310;8.646;2023-07-08T05:29:59;15.27;;;13.50;;
8596;SDS011;4336;49.310;8.646;2023-07-08T05:32:25;14.07;;;12.68;;
8596;SDS011;4336;49.310;8.646;2023-07-08T05:34:52;15.13;;;13.60;;
8596;SDS011;4336;49.310;8.646;2023-07-08T05:37:18;15.85;;;13.60;;
8596;SDS011;4336;49.310;8.646;2023-07-08T05:39:46;13.73;;;11.73;;
8596;SDS011;4336;49.310;8.646;2023-07-08T05:42:12;19.80;;;11.32;;
8596;SDS011;4336;49.310;8.646;2023-07-08T05:44:39;14.52;;;12.98;;
8596;SDS011;4336;49.310;8.646;2023-07-08T05:47:04;21.88;;;19.58;;
8596;SDS011;4336;49.310;8.646;2023-07-08T05:49:30;20.63;;;15.50;;
8596;SDS011;4336;49.310;8.646;2023-07-08T05:51:56;14.77;;;13.10;;
8596;SDS011;4336;49.310;8.646;2023-07-08T05:54:21;14.75;;;13.27;;
8596;SDS011;4336;49.310;8.646;2023-07-08T05:56:47;15.73;;;14.18;;
8596;SDS011;4336;49.310;8.646;2023-07-08T05:59:13;13.88;;;12.38;;
8596;SDS011;4336;49.310;8.646;2023-07-08T06:01:39;15.30;;;13.90;;
8596;SDS011;4336;49.310;8.646;2023-07-08T06:04:04;15.20;;;13.70;;
8596;SDS011;4336;49.310;8.646;2023-07-08T06:06:30;14.65;;;13.15;;
8596;SDS011;4336;49.310;8.646;2023-07-08T06:08:56;18.60;;;14.15;;
8596;SDS011;4336;49.310;8.646;2023-07-08T06:11:21;15.02;;;13.63;;
8596;SDS011;4336;49.310;8.646;2023-07-08T06:13:47;20.30;;;17.42;;
8596;SDS011;4336;49.310;8.646;2023-07-08T06:16:13;16.58;;;12.90;;
8596;SDS011;4336;49.310;8.646;2023-07-08T06:18:39;14.95;;;13.50;;
8596;SDS011;4336;49.310;8.646;2023-07-08T06:21:05;17.05;;;13.65;;
8596;SDS011;4336;49.310;8.646;2023-07-08T06:23:31;16.10;;;14.43;;
8596;SDS011;4336;49.310;8.646;2023-07-08T06:25:56;14.73;;;13.23;;
8596;SDS011;4336;49.310;8.646;2023-07-08T06:28:22;15.43;;;13.77;;
8596;SDS011;4336;49.310;8.646;2023-07-08T06:30:48;16.58;;;14.00;;
8596;SDS011;4336;49.310;8.646;2023-07-08T06:33:14;15.23;;;13.70;;
8596;SDS011;4336;49.310;8.646;2023-07-08T06:35:41;17.48;;;13.95;;
8596;SDS011;4336;49.310;8.646;2023-07-08T06:38:07;16.08;;;13.40;;
8596;SDS011;4336;49.310;8.646;2023-07-08T06:40:33;14.98;;;13.38;;
8596;SDS011;4336;49.310;8.646;2023-07-08T06:42:59;16.35;;;12.75;;
8596;SDS011;4336;49.310;8.646;2023-07-08T06:45:40;17.73;;;13.63;;
8596;SDS011;4336;49.310;8.646;2023-07-08T06:48:06;16.92;;;13.43;;
8596;SDS011;4336;49.310;8.646;2023-07-08T06:50:32;14.80;;;13.27;;
8596;SDS011;4336;49.310;8.646;2023-07-08T06:52:58;17.15;;;14.90;;
8596;SDS011;4336;49.310;8.646;2023-07-08T06:55:24;16.02;;;14.25;;
8596;SDS011;4336;49.310;8.646;2023-07-08T06:57:49;14.40;;;12.90;;
8596;SDS011;4336;49.310;8.646;2023-07-08T07:00:15;14.20;;;12.70;;
8596;SDS011;4336;49.310;8.646;2023-07-08T07:02:41;13.73;;;12.38;;
8596;SDS011;4336;49.310;8.646;2023-07-08T07:05:08;13.82;;;11.85;;
8596;SDS011;4336;49.310;8.646;2023-07-08T07:07:34;13.75;;;12.25;;
8596;SDS011;4336;49.310;8.646;2023-07-08T07:10:00;15.02;;;11.73;;
8596;SDS011;4336;49.310;8.646;2023-07-08T07:12:26;16.58;;;12.40;;
8596;SDS011;4336;49.310;8.646;2023-07-08T07:14:52;14.77;;;12.38;;
8596;SDS011;4336;49.310;8.646;2023-07-08T07:17:22;12.13;;;10.75;;
8596;SDS011;4336;49.310;8.646;2023-07-08T07:19:48;12.45;;;11.25;;
8596;SDS011;4336;49.310;8.646;2023-07-08T07:22:14;12.90;;;10.85;;
8596;SDS011;4336;49.310;8.646;2023-07-08T07:24:40;12.55;;;9.98;;
8596;SDS011;4336;49.310;8.646;2023-07-08T07:27:06;12.02;;;10.07;;
8596;SDS011;4336;49.310;8.646;2023-07-08T07:29:44;13.45;;;10.45;;
8596;SDS011;4336;49.310;8.646;2023-07-08T07:32:11;23.02;;;11.25;;
8596;SDS011;4336;49.310;8.646;2023-07-08T07:34:38;14.88;;;10.82;;
8596;SDS011;4336;49.310;8.646;2023-07-08T07:37:05;12.82;;;10.63;;
8596;SDS011;4336;49.310;8.646;2023-07-08T07:39:31;13.55;;;10.15;;
8596;SDS011;4336;49.310;8.646;2023-07-08T07:41:57;12.07;;;10.05;;
8596;SDS011;4336;49.310;8.646;2023-07-08T07:44:23;13.82;;;11.20;;
8596;SDS011;4336;49.310;8.646;2023-07-08T07:46:51;12.20;;;10.75;;
8596;SDS011;4336;49.310;8.646;2023-07-08T07:49:18;12.25;;;10.68;;
8596;SDS011;4336;49.310;8.646;2023-07-08T07:51:44;13.05;;;10.52;;
8596;SDS011;4336;49.310;8.646;2023-07-08T07:54:09;13.77;;;10.55;;
8596;SDS011;4336;49.310;8.646;2023-07-08T07:56:35;11.77;;;10.57;;
8596;SDS011;4336;49.310;8.646;2023-07-08T07:59:02;15.45;;;11.68;;
8596;SDS011;4336;49.310;8.646;2023-07-08T08:01:28;11.70;;;9.23;;
8596;SDS011;4336;49.310;8.646;2023-07-08T08:03:54;12.15;;;9.13;;
8596;SDS011;4336;49.310;8.646;2023-07-08T08:06:20;14.82;;;10.07;;
8596;SDS011;4336;49.310;8.646;2023-07-08T08:08:45;37.38;;;11.57;;
8596;SDS011;4336;49.310;8.646;2023-07-08T08:11:11;22.95;;;11.02;;
8596;SDS011;4336;49.310;8.646;2023-07-08T08:13:37;53.25;;;13.63;;
8596;SDS011;4336;49.310;8.646;2023-07-08T08:16:03;26.75;;;9.50;;
8596;SDS011;4336;49.310;8.646;2023-07-08T08:18:29;49.25;;;12.38;;
8596;SDS011;4336;49.310;8.646;2023-07-08T08:20:56;28.13;;;11.88;;
8596;SDS011;4336;49.310;8.646;2023-07-08T08:23:22;12.07;;;10.30;;
8596;SDS011;4336;49.310;8.646;2023-07-08T08:25:47;31.20;;;11.23;;
8596;SDS011;4336;49.310;8.646;2023-07-08T08:28:14;11.95;;;10.05;;
8596;SDS011;4336;49.310;8.646;2023-07-08T08:30:40;12.00;;;9.80;;
8596;SDS011;4336;49.310;8.646;2023-07-08T08:33:06;17.15;;;9.77;;
8596;SDS011;4336;49.310;8.646;2023-07-08T08:35:32;16.45;;;10.32;;
8596;SDS011;4336;49.310;8.646;2023-07-08T08:37:58;14.55;;;10.77;;
8596;SDS011;4336;49.310;8.646;2023-07-08T08:40:23;12.57;;;9.18;;
8596;SDS011;4336;49.310;8.646;2023-07-08T08:43:02;10.55;;;9.45;;
8596;SDS011;4336;49.310;8.646;2023-07-08T08:46:26;20.95;;;10.77;;
8596;SDS011;4336;49.310;8.646;2023-07-08T08:49:01;12.60;;;9.75;;
8596;SDS011;4336;49.310;8.646;2023-07-08T08:51:31;17.65;;;9.48;;
8596;SDS011;4336;49.310;8.646;2023-07-08T08:53:57;11.68;;;9.35;;
8596;SDS011;4336;49.310;8.646;2023-07-08T08:56:28;11.40;;;9.65;;
8596;SDS011;4336;49.310;8.646;2023-07-08T08:59:20;15.75;;;10.82;;
8596;SDS011;4336;49.310;8.646;2023-07-08T09:01:42;29.65;;;10.07;;
8596;SDS011;4336;49.310;8.646;2023-07-08T09:04:13;114.25;;;13.45;;
8596;SDS011;4336;49.310;8.646;2023-07-08T09:06:42;16.10;;;9.60;;
8596;SDS011;4336;49.310;8.646;2023-07-08T09:09:29;21.40;;;10.43;;
8596;SDS011;4336;49.310;8.646;2023-07-08T09:12:05;13.70;;;9.13;;
8596;SDS011;4336;49.310;8.646;2023-07-08T09:14:34;12.38;;;10.25;;
8596;SDS011;4336;49.310;8.646;2023-07-08T09:22:53;11.60;;;9.48;;
8596;SDS011;4336;49.310;8.646;2023-07-08T09:25:37;11.23;;;8.80;;
8596;SDS011;4336;49.310;8.646;2023-07-08T09:28:07;15.88;;;9.40;;
8596;SDS011;4336;49.310;8.646;2023-07-08T09:30:33;12.43;;;9.60;;
8596;SDS011;4336;49.310;8.646;2023-07-08T09:33:02;11.45;;;9.18;;
8596;SDS011;4336;49.310;8.646;2023-07-08T09:35:29;10.30;;;9.30;;
8596;SDS011;4336;49.310;8.646;2023-07-08T09:38:08;12.05;;;9.75;;
8596;SDS011;4336;49.310;8.646;2023-07-08T09:40:35;16.08;;;9.80;;
8596;SDS011;4336;49.310;8.646;2023-07-08T09:43:24;10.55;;;9.40;;
8596;SDS011;4336;49.310;8.646;2023-07-08T09:46:13;15.82;;;10.50;;
8596;SDS011;4336;49.310;8.646;2023-07-08T09:48:40;13.00;;;10.13;;
8596;SDS011;4336;49.310;8.646;2023-07-08T09:51:06;9.93;;;8.48;;
8596;SDS011;4336;49.310;8.646;2023-07-08T09:53:33;13.23;;;9.60;;
8596;SDS011;4336;49.310;8.646;2023-07-08T09:55:59;14.02;;;9.98;;
8596;SDS011;4336;49.310;8.646;2023-07-08T09:58:31;15.23;;;9.85;;
8596;SDS011;4336;49.310;8.646;2023-07-08T10:01:09;10.75;;;9.63;;
8596;SDS011;4336;49.310;8.646;2023-07-08T10:03:37;13.68;;;9.55;;
8596;SDS011;4336;49.310;8.646;2023-07-08T10:06:05;19.52;;;11.63;;
8596;SDS011;4336;49.310;8.646;2023-07-08T10:08:42;16.42;;;10.45;;
8596;SDS011;4336;49.310;8.646;2023-07-08T10:11:31;27.08;;;10.70;;
8596;SDS011;4336;49.310;8.646;2023-07-08T10:14:00;12.55;;;9.57;;
8596;SDS011;4336;49.310;8.646;2023-07-08T10:16:33;12.35;;;9.02;;
8596;SDS011;4336;49.310;8.646;2023-07-08T10:18:59;11.32;;;9.95;;
8596;SDS011;4336;49.310;8.646;2023-07-08T10:21:31;13.00;;;10.10;;
8596;SDS011;4336;49.310;8.646;2023-07-08T10:37:34;11.25;;;9.13;;
8596;SDS011;4336;49.310;8.646;2023-07-08T10:40:21;15.35;;;10.50;;
8596;SDS011;4336;49.310;8.646;2023-07-08T10:43:04;13.00;;;10.35;;
8596;SDS011;4336;49.310;8.646;2023-07-08T10:45:46;14.77;;;10.15;;
8596;SDS011;4336;49.310;8.646;2023-07-08T10:51:26;15.45;;;11.18;;
8596;SDS011;4336;49.310;8.646;2023-07-08T10:56:46;16.58;;;10.73;;
8596;SDS011;4336;49.310;8.646;2023-07-08T11:07:22;17.23;;;10.85;;
8596;SDS011;4336;49.310;8.646;2023-07-08T11:09:56;16.67;;;11.02;;
8596;SDS011;4336;49.310;8.646;2023-07-08T11:18:15;13.82;;;10.85;;
8596;SDS011;4336;49.310;8.646;2023-07-08T11:20:54;12.82;;;10.52;;
8596;SDS011;4336;49.310;8.646;2023-07-08T11:23:26;14.10;;;10.77;;
8596;SDS011;4336;49.310;8.646;2023-07-08T11:26:07;14.70;;;10.45;;
8596;SDS011;4336;49.310;8.646;2023-07-08T11:28:44;12.95;;;10.80;;
8596;SDS011;4336;49.310;8.646;2023-07-08T11:31:11;14.20;;;11.30;;
8596;SDS011;4336;49.310;8.646;2023-07-08T11:33:37;14.15;;;11.13;;
8596;SDS011;4336;49.310;8.646;2023-07-08T11:36:04;15.57;;;11.15;;
8596;SDS011;4336;49.310;8.646;2023-07-08T11:38:31;13.05;;;10.07;;
8596;SDS011;4336;49.310;8.646;2023-07-08T11:46:11;12.23;;;10.63;;
8596;SDS011;4336;49.310;8.646;2023-07-08T11:48:45;12.43;;;11.07;;
8596;SDS011;4336;49.310;8.646;2023-07-08T11:51:16;12.75;;;9.55;;
8596;SDS011;4336;49.310;8.646;2023-07-08T11:53:49;16.60;;;10.80;;
8596;SDS011;4336;49.310;8.646;2023-07-08T11:56:26;9.95;;;8.80;;
8596;SDS011;4336;49.310;8.646;2023-07-08T11:58:57;11.40;;;9.25;;
8596;SDS011;4336;49.310;8.646;2023-07-08T12:01:30;13.88;;;10.35;;
8596;SDS011;4336;49.310;8.646;2023-07-08T12:09:01;15.57;;;10.93;;
8596;SDS011;4336;49.310;8.646;2023-07-08T12:11:51;13.77;;;10.57;;
8596;SDS011;4336;49.310;8.646;2023-07-08T12:14:24;15.93;;;11.00;;
8596;SDS011;4336;49.310;8.646;2023-07-08T12:16:51;19.52;;;11.02;;
8596;SDS011;4336;49.310;8.646;2023-07-08T12:19:17;15.18;;;11.75;;
8596;SDS011;4336;49.310;8.646;2023-07-08T12:21:44;19.30;;;10.30;;
8596;SDS011;4336;49.310;8.646;2023-07-08T12:24:11;13.65;;;10.10;;
8596;SDS011;4336;49.310;8.646;2023-07-08T12:26:38;14.93;;;10.95;;
8596;SDS011;4336;49.310;8.646;2023-07-08T12:29:04;12.00;;;10.60;;
8596;SDS011;4336;49.310;8.646;2023-07-08T12:31:30;14.23;;;10.45;;
8596;SDS011;4336;49.310;8.646;2023-07-08T12:33:59;13.77;;;10.20;;
8596;SDS011;4336;49.310;8.646;2023-07-08T12:36:27;11.50;;;10.02;;
8596;SDS011;4336;49.310;8.646;2023-07-08T12:38:57;14.15;;;10.98;;
8596;SDS011;4336;49.310;8.646;2023-07-08T12:41:25;11.63;;;10.20;;
8596;SDS011;4336;49.310;8.646;2023-07-08T12:43:53;14.35;;;10.70;;
8596;SDS011;4336;49.310;8.646;2023-07-08T12:46:20;17.17;;;10.07;;
8596;SDS011;4336;49.310;8.646;2023-07-08T12:48:47;16.08;;;11.35;;
8596;SDS011;4336;49.310;8.646;2023-07-08T12:51:14;13.50;;;9.98;;
8596;SDS011;4336;49.310;8.646;2023-07-08T12:53:42;16.45;;;11.68;;
8596;SDS011;4336;49.310;8.646;2023-07-08T12:56:08;10.77;;;9.18;;
8596;SDS011;4336;49.310;8.646;2023-07-08T12:58:36;15.85;;;8.68;;
8596;SDS011;4336;49.310;8.646;2023-07-08T13:01:15;17.05;;;10.85;;
8596;SDS011;4336;49.310;8.646;2023-07-08T13:03:43;11.98;;;10.40;;
8596;SDS011;4336;49.310;8.646;2023-07-08T13:06:12;13.25;;;10.63;;
8596;SDS011;4336;49.310;8.646;2023-07-08T13:08:41;13.20;;;8.90;;
8596;SDS011;4336;49.310;8.646;2023-07-08T13:11:07;10.93;;;8.80;;
8596;SDS011;4336;49.310;8.646;2023-07-08T13:13:34;10.77;;;9.40;;
8596;SDS011;4336;49.310;8.646;2023-07-08T13:16:03;10.80;;;8.75;;
8596;SDS011;4336;49.310;8.646;2023-07-08T13:20:56;14.27;;;9.75;;
8596;SDS011;4336;49.310;8.646;2023-07-08T13:23:23;14.02;;;10.25;;
8596;SDS011;4336;49.310;8.646;2023-07-08T13:25:50;11.65;;;10.45;;
8596;SDS011;4336;49.310;8.646;2023-07-08T13:28:17;12.38;;;10.02;;
8596;SDS011;4336;49.310;8.646;2023-07-08T13:30:58;12.45;;;10.35;;
8596;SDS011;4336;49.310;8.646;2023-07-08T13:33:32;11.25;;;9.82;;
8596;SDS011;4336;49.310;8.646;2023-07-08T13:36:03;16.00;;;10.63;;
8596;SDS011;4336;49.310;8.646;2023-07-08T13:38:33;11.30;;;10.00;;
8596;SDS011;4336;49.310;8.646;2023-07-08T13:41:04;9.70;;;8.55;;
8596;SDS011;4336;49.310;8.646;2023-07-08T13:43:36;11.63;;;9.82;;
8596;SDS011;4336;49.310;8.646;2023-07-08T13:46:05;12.93;;;10.35;;
8596;SDS011;4336;49.310;8.646;2023-07-08T13:48:34;13.30;;;9.95;;
8596;SDS011;4336;49.310;8.646;2023-07-08T13:51:17;14.45;;;10.35;;
8596;SDS011;4336;49.310;8.646;2023-07-08T13:53:47;12.93;;;9.90;;
8596;SDS011;4336;49.310;8.646;2023-07-08T13:56:20;11.57;;;9.98;;
8596;SDS011;4336;49.310;8.646;2023-07-08T13:58:48;11.50;;;10.15;;
8596;SDS011;4336;49.310;8.646;2023-07-08T14:01:17;12.68;;;9.73;;
8596;SDS011;4336;49.310;8.646;2023-07-08T14:03:47;13.43;;;10.00;;
8596;SDS011;4336;49.310;8.646;2023-07-08T14:06:15;18.83;;;9.32;;
8596;SDS011;4336;49.310;8.646;2023-07-08T14:08:41;13.27;;;9.98;;
8596;SDS011;4336;49.310;8.646;2023-07-08T14:11:07;13.43;;;10.02;;
8596;SDS011;4336;49.310;8.646;2023-07-08T14:13:33;11.32;;;9.68;;
8596;SDS011;4336;49.310;8.646;2023-07-08T14:15:59;11.27;;;9.70;;
8596;SDS011;4336;49.310;8.646;2023-07-08T14:18:25;10.25;;;8.63;;
8596;SDS011;4336;49.310;8.646;2023-07-08T14:20:51;10.35;;;8.18;;
8596;SDS011;4336;49.310;8.646;2023-07-08T14:23:17;11.38;;;8.07;;
8596;SDS011;4336;49.310;8.646;2023-07-08T14:25:44;10.88;;;9.77;;
8596;SDS011;4336;49.310;8.646;2023-07-08T14:28:10;11.02;;;9.73;;
8596;SDS011;4336;49.310;8.646;2023-07-08T14:30:37;12.30;;;10.05;;
8596;SDS011;4336;49.310;8.646;2023-07-08T14:33:08;11.90;;;9.65;;
8596;SDS011;4336;49.310;8.646;2023-07-08T14:35:35;10.68;;;9.63;;
8596;SDS011;4336;49.310;8.646;2023-07-08T14:38:01;10.38;;;9.27;;
8596;SDS011;4336;49.310;8.646;2023-07-08T14:40:34;11.82;;;9.48;;
8596;SDS011;4336;49.310;8.646;2023-07-08T14:43:10;10.93;;;9.80;;
8596;SDS011;4336;49.310;8.646;2023-07-08T14:46:01;11.75;;;9.70;;
8596;SDS011;4336;49.310;8.646;2023-07-08T14:48:29;9.55;;;8.68;;
8596;SDS011;4336;49.310;8.646;2023-07-08T14:50:56;12.45;;;9.60;;
8596;SDS011;4336;49.310;8.646;2023-07-08T14:53:22;10.65;;;9.35;;
8596;SDS011;4336;49.310;8.646;2023-07-08T14:55:48;10.95;;;9.85;;
8596;SDS011;4336;49.310;8.646;2023-07-08T14:58:19;11.25;;;9.55;;
8596;SDS011;4336;49.310;8.646;2023-07-08T15:00:47;10.60;;;9.25;;
8596;SDS011;4336;49.310;8.646;2023-07-08T15:03:13;11.27;;;10.15;;
8596;SDS011;4336;49.310;8.646;2023-07-08T15:05:39;11.25;;;10.10;;
8596;SDS011;4336;49.310;8.646;2023-07-08T15:08:05;10.20;;;9.30;;
8596;SDS011;4336;49.310;8.646;2023-07-08T15:10:30;17.17;;;10.15;;
8596;SDS011;4336;49.310;8.646;2023-07-08T15:12:58;10.25;;;9.25;;
8596;SDS011;4336;49.310;8.646;2023-07-08T15:15:31;13.75;;;9.10;;
8596;SDS011;4336;49.310;8.646;2023-07-08T15:17:58;14.35;;;9.05;;
8596;SDS011;4336;49.310;8.646;2023-07-08T15:20:26;14.85;;;9.57;;
8596;SDS011;4336;49.310;8.646;2023-07-08T15:22:51;14.18;;;9.93;;
8596;SDS011;4336;49.310;8.646;2023-07-08T15:25:17;12.00;;;10.68;;
8596;SDS011;4336;49.310;8.646;2023-07-08T15:27:45;10.57;;;9.48;;
8596;SDS011;4336;49.310;8.646;2023-07-08T15:30:15;11.60;;;10.20;;
8596;SDS011;4336;49.310;8.646;2023-07-08T15:32:45;10.68;;;9.68;;
8596;SDS011;4336;49.310;8.646;2023-07-08T15:35:15;10.13;;;9.07;;
8596;SDS011;4336;49.310;8.646;2023-07-08T15:37:46;10.90;;;9.20;;
8596;SDS011;4336;49.310;8.646;2023-07-08T15:40:12;14.77;;;9.68;;
8596;SDS011;4336;49.310;8.646;2023-07-08T15:42:39;11.25;;;9.60;;
8596;SDS011;4336;49.310;8.646;2023-07-08T15:47:37;10.95;;;9.80;;
8596;SDS011;4336;49.310;8.646;2023-07-08T15:50:08;11.25;;;9.73;;
8596;SDS011;4336;49.310;8.646;2023-07-08T15:52:38;10.63;;;9.57;;
8596;SDS011;4336;49.310;8.646;2023-07-08T15:55:04;10.75;;;9.60;;
8596;SDS011;4336;49.310;8.646;2023-07-08T15:57:30;11.20;;;9.48;;
8596;SDS011;4336;49.310;8.646;2023-07-08T15:59:57;12.43;;;9.77;;
8596;SDS011;4336;49.310;8.646;2023-07-08T16:02:29;13.05;;;9.88;;